Time;durP1;ratioP1;P1;durP2;ratioP2;P2;SDS_P1;SDS_P2;PMS_P1;PMS_P2;Temp;Humidity;BMP_temperature;BMP_pressure;BME280_temperature;BME280_humidity;BME280_pressure;Samples;Min_cycle;Max_cycle;Signal;HPM_P1;HPM_P2
2022/05/04 00:01:06;;;;;;;1.27;1.00;;;17.40;52.90;;;;;;4945461;28;20043;-83
2022/05/04 00:03:35;;;;;;;1.17;0.75;;;17.50;52.90;;;;;;4944240;28;20530;-83
2022/05/04 00:06:01;;;;;;;3.13;0.90;;;17.40;52.90;;;;;;4923267;28;20126;-82
2022/05/04 00:08:26;;;;;;;3.13;1.05;;;17.40;53.00;;;;;;4928204;28;20139;-82
2022/05/04 00:10:52;;;;;;;0.80;0.80;;;17.40;53.00;;;;;;4944392;28;20035;-83
2022/05/04 00:13:18;;;;;;;1.60;0.75;;;17.40;53.10;;;;;;4945651;29;20073;-83
2022/05/04 00:15:44;;;;;;;0.90;0.85;;;17.30;53.10;;;;;;4960185;28;20047;-82
2022/05/04 00:18:10;;;;;;;1.80;0.80;;;17.40;53.10;;;;;;4945868;28;20031;-82
2022/05/04 00:20:37;;;;;;;1.27;0.80;;;17.30;53.00;;;;;;4944595;28;20035;-82
2022/05/04 00:23:02;;;;;;;1.17;0.85;;;17.40;53.20;;;;;;4932976;28;20035;-82
2022/05/04 00:25:28;;;;;;;2.17;0.85;;;17.30;53.20;;;;;;4960774;28;20054;-82
2022/05/04 00:27:54;;;;;;;1.58;0.80;;;17.40;53.30;;;;;;4990376;28;20036;-83
2022/05/04 00:30:20;;;;;;;1.08;0.93;;;17.30;53.20;;;;;;4945795;28;20051;-82
2022/05/04 00:32:47;;;;;;;1.25;0.80;;;17.30;53.20;;;;;;4945019;28;20077;-82
2022/05/04 00:35:13;;;;;;;1.95;0.90;;;17.30;53.80;;;;;;4928708;28;20406;-83
2022/05/04 00:37:39;;;;;;;2.70;1.00;;;17.30;53.30;;;;;;4945008;28;20035;-82
2022/05/04 00:40:05;;;;;;;1.05;0.98;;;17.30;53.40;;;;;;4959960;28;20062;-82
2022/05/04 00:42:32;;;;;;;2.35;1.00;;;17.30;53.40;;;;;;4959088;28;20039;-82
2022/05/04 00:44:57;;;;;;;3.05;0.98;;;17.30;53.50;;;;;;4944917;28;20478;-82
2022/05/04 00:47:23;;;;;;;1.75;0.80;;;17.20;53.50;;;;;;4928253;28;20158;-82
2022/05/04 00:49:49;;;;;;;2.00;0.82;;;17.30;53.60;;;;;;4927901;28;20547;-85
2022/05/04 00:52:17;;;;;;;1.77;0.90;;;17.30;53.70;;;;;;4960688;28;20648;-83
2022/05/04 00:54:46;;;;;;;2.55;1.13;;;17.20;53.70;;;;;;4963936;28;20036;-83
2022/05/04 00:57:13;;;;;;;1.38;1.00;;;17.20;53.70;;;;;;4964184;28;20134;-82
2022/05/04 00:59:41;;;;;;;1.65;0.98;;;17.20;53.70;;;;;;4932443;28;20500;-84
2022/05/04 01:02:07;;;;;;;1.23;0.90;;;17.20;53.80;;;;;;4948071;28;20035;-84
2022/05/04 01:04:33;;;;;;;1.55;0.93;;;17.20;53.70;;;;;;4954671;28;20042;-84
2022/05/04 01:07:00;;;;;;;1.42;1.00;;;17.20;53.80;;;;;;4963875;28;20031;-85
2022/05/04 01:09:26;;;;;;;0.98;0.98;;;17.20;53.70;;;;;;4963755;28;20047;-86
2022/05/04 01:11:52;;;;;;;2.03;0.90;;;17.20;53.70;;;;;;4963181;28;20042;-86
2022/05/04 01:14:18;;;;;;;2.15;1.05;;;17.20;53.80;;;;;;4963494;28;20028;-86
2022/05/04 01:16:48;;;;;;;1.45;0.95;;;17.10;53.80;;;;;;4947250;28;20047;-84
2022/05/04 01:19:15;;;;;;;1.85;0.95;;;17.20;53.90;;;;;;4947901;28;20038;-85
2022/05/04 01:21:41;;;;;;;0.80;0.80;;;17.20;54.00;;;;;;4947230;28;20120;-84
2022/05/04 01:24:09;;;;;;;1.05;0.82;;;17.10;53.90;;;;;;4963504;28;20039;-84
2022/05/04 01:26:35;;;;;;;4.25;1.13;;;17.20;53.90;;;;;;4927803;28;20031;-85
2022/05/04 01:29:01;;;;;;;1.30;1.17;;;17.20;53.90;;;;;;4948731;28;20037;-84
2022/05/04 01:31:27;;;;;;;2.30;1.00;;;17.10;54.00;;;;;;4948120;28;20082;-83
2022/05/04 01:33:54;;;;;;;1.20;0.95;;;17.10;54.00;;;;;;4949302;28;20047;-83
2022/05/04 01:36:20;;;;;;;2.00;1.10;;;17.10;53.90;;;;;;4938884;28;20088;-83
2022/05/04 01:38:46;;;;;;;2.00;0.85;;;17.10;53.90;;;;;;4930635;28;20130;-82
2022/05/04 01:43:57;;;;;;;0.93;0.90;;;17.10;53.80;;;;;;4930902;28;20109;-82
2022/05/04 01:46:22;;;;;;;2.45;0.75;;;17.10;53.80;;;;;;4962940;28;20080;-81
2022/05/04 01:48:49;;;;;;;0.88;0.88;;;17.00;53.70;;;;;;4931752;28;20428;-81
2022/05/04 01:51:15;;;;;;;1.88;1.13;;;17.00;53.80;;;;;;4930510;28;20036;-83
2022/05/04 01:53:43;;;;;;;1.88;0.90;;;17.00;53.90;;;;;;4946084;28;20039;-83
2022/05/04 01:56:10;;;;;;;1.27;0.93;;;17.00;54.00;;;;;;4965629;28;20043;-82
2022/05/04 01:58:36;;;;;;;2.75;1.00;;;17.00;53.90;;;;;;4979916;28;20050;-83
2022/05/04 02:01:02;;;;;;;1.50;0.80;;;17.00;54.00;;;;;;4948344;28;20051;-83
2022/05/04 02:03:28;;;;;;;1.73;0.95;;;17.00;54.00;;;;;;4946647;28;20081;-83
2022/05/04 02:05:55;;;;;;;2.22;1.20;;;17.00;54.00;;;;;;4925441;28;20042;-83
2022/05/04 02:08:21;;;;;;;1.73;1.08;;;17.00;53.90;;;;;;4930719;28;20043;-81
2022/05/04 02:10:48;;;;;;;2.08;1.10;;;17.00;53.80;;;;;;4946218;28;20031;-83
2022/05/04 02:13:13;;;;;;;1.77;1.13;;;16.90;53.60;;;;;;4962054;28;20495;-84
2022/05/04 02:15:39;;;;;;;1.40;1.20;;;17.00;53.60;;;;;;4963133;28;20494;-84
2022/05/04 02:18:06;;;;;;;3.53;1.00;;;17.00;53.50;;;;;;4962261;28;20045;-84
2022/05/04 02:20:32;;;;;;;1.35;1.08;;;17.10;53.50;;;;;;4930236;28;20490;-85
2022/05/04 02:22:58;;;;;;;1.27;1.00;;;17.10;53.40;;;;;;4962414;28;20394;-84
2022/05/04 02:25:23;;;;;;;1.85;1.00;;;17.00;53.20;;;;;;4978641;28;20032;-85
2022/05/04 02:27:49;;;;;;;1.65;0.70;;;17.00;53.20;;;;;;4925483;28;20126;-84
2022/05/04 02:30:15;;;;;;;1.73;0.80;;;17.10;54.10;;;;;;4946342;28;20104;-84
2022/05/04 02:32:41;;;;;;;2.35;0.75;;;17.10;53.50;;;;;;4929718;28;20039;-83
2022/05/04 02:37:55;;;;;;;1.80;1.20;;;17.10;53.00;;;;;;4947946;28;20569;-83
2022/05/04 02:40:22;;;;;;;1.73;0.70;;;17.20;52.80;;;;;;4929098;28;20494;-82
2022/05/04 02:42:48;;;;;;;4.13;0.80;;;17.20;52.50;;;;;;4948325;28;20086;-84
2022/05/04 02:45:15;;;;;;;1.98;1.13;;;17.20;52.50;;;;;;4964543;28;20035;-83
2022/05/04 02:47:40;;;;;;;1.50;0.93;;;17.20;52.50;;;;;;4962138;28;20047;-83
2022/05/04 02:50:08;;;;;;;2.45;0.90;;;17.10;52.60;;;;;;4962388;28;20031;-83
2022/05/04 02:52:34;;;;;;;1.15;0.82;;;17.20;52.90;;;;;;4916991;28;20035;-83
2022/05/04 02:55:00;;;;;;;0.95;0.70;;;17.20;52.50;;;;;;4930964;28;20040;-82
2022/05/04 02:57:26;;;;;;;2.25;0.98;;;17.30;52.50;;;;;;4946902;28;20051;-82
2022/05/04 02:59:52;;;;;;;3.38;1.00;;;17.20;52.20;;;;;;4947489;28;20120;-82
2022/05/04 03:02:26;;;;;;;1.48;0.60;;;17.20;52.20;;;;;;4962101;28;20131;-83
2022/05/04 03:05:00;;;;;;;1.05;0.65;;;17.20;52.40;;;;;;4946827;28;20042;-83
2022/05/04 03:07:26;;;;;;;1.40;0.68;;;17.20;52.20;;;;;;4947493;29;20517;-83
2022/05/04 03:09:54;;;;;;;0.63;0.63;;;17.20;52.00;;;;;;4946298;28;20570;-82
2022/05/04 03:12:20;;;;;;;0.85;0.60;;;17.20;52.10;;;;;;4926804;29;20059;-84
2022/05/04 03:14:46;;;;;;;2.60;0.60;;;17.20;52.10;;;;;;4929663;28;20079;-84
2022/05/04 03:17:12;;;;;;;1.83;0.60;;;17.20;52.10;;;;;;4924115;28;20454;-83
2022/05/04 03:19:38;;;;;;;0.73;0.50;;;17.20;52.20;;;;;;4944824;28;20127;-85
2022/05/04 03:22:05;;;;;;;0.90;0.60;;;17.10;52.60;;;;;;4974547;28;20043;-84
2022/05/04 03:24:31;;;;;;;0.80;0.50;;;17.00;53.40;;;;;;4943443;28;20085;-84
2022/05/04 03:26:58;;;;;;;1.80;0.60;;;17.00;54.00;;;;;;4961748;28;20036;-84
2022/05/04 03:29:24;;;;;;;2.63;0.85;;;17.10;54.20;;;;;;4946495;28;20647;-84
2022/05/04 03:31:50;;;;;;;1.95;0.85;;;17.20;54.10;;;;;;4975093;28;20043;-84
2022/05/04 03:34:16;;;;;;;1.27;0.60;;;17.20;53.80;;;;;;4929211;29;20031;-84
2022/05/04 03:36:42;;;;;;;2.92;0.52;;;17.20;53.80;;;;;;4990433;28;20050;-82
2022/05/04 03:39:09;;;;;;;1.23;0.52;;;17.20;54.30;;;;;;4961341;28;20035;-82
2022/05/04 03:41:35;;;;;;;1.52;0.55;;;17.20;54.40;;;;;;4944460;28;20031;-78
2022/05/04 03:44:02;;;;;;;0.93;0.70;;;17.20;54.20;;;;;;4945402;28;20039;-78
2022/05/04 03:46:39;;;;;;;0.80;0.68;;;17.10;54.20;;;;;;4945434;29;21054;-79
2022/05/04 03:49:08;;;;;;;2.92;1.05;;;17.10;54.40;;;;;;4927851;28;20035;-78
2022/05/04 03:51:34;;;;;;;1.63;0.65;;;17.10;54.60;;;;;;4928697;28;20035;-78
2022/05/04 03:54:00;;;;;;;1.05;0.60;;;17.00;54.50;;;;;;4911546;28;20063;-78
2022/05/04 03:56:27;;;;;;;1.95;0.88;;;16.90;54.60;;;;;;4946283;28;20047;-77
2022/05/04 03:58:52;;;;;;;0.73;0.73;;;16.90;54.80;;;;;;4959672;28;20039;-77
2022/05/04 04:01:18;;;;;;;3.38;0.63;;;16.90;54.70;;;;;;4943098;28;20077;-76
2022/05/04 04:03:45;;;;;;;0.85;0.80;;;16.90;54.50;;;;;;4943846;28;20130;-78
2022/05/04 04:06:11;;;;;;;0.63;0.50;;;16.90;54.70;;;;;;4926544;28;20135;-77
2022/05/04 04:08:37;;;;;;;0.65;0.50;;;16.90;55.00;;;;;;4943937;28;20039;-78
2022/05/04 04:11:06;;;;;;;2.40;0.50;;;17.00;55.20;;;;;;4959602;28;20046;-78
2022/05/04 04:13:32;;;;;;;1.60;0.60;;;17.00;55.30;;;;;;4943761;28;20032;-78
2022/05/04 04:15:58;;;;;;;0.65;0.50;;;17.10;55.40;;;;;;4944083;28;20494;-78
2022/05/04 04:18:26;;;;;;;1.35;0.82;;;17.30;55.70;;;;;;4943851;28;20039;-78
2022/05/04 04:23:38;;;;;;;1.55;0.60;;;17.50;55.50;;;;;;4958875;28;20043;-78
2022/05/04 04:26:06;;;;;;;2.35;0.57;;;17.70;55.00;;;;;;4958067;28;20043;-77
2022/05/04 04:28:36;;;;;;;1.20;0.73;;;17.80;54.70;;;;;;4938443;28;20450;-77
2022/05/04 04:31:03;;;;;;;1.95;0.80;;;17.80;54.60;;;;;;4943543;28;20126;-77
2022/05/04 04:33:29;;;;;;;0.65;0.50;;;18.00;54.50;;;;;;4958876;28;20031;-77
2022/05/04 04:35:56;;;;;;;1.05;0.70;;;18.10;54.30;;;;;;4944450;28;20064;-78
2022/05/04 04:38:22;;;;;;;4.00;0.65;;;18.20;54.20;;;;;;4958386;28;20040;-77
2022/05/04 04:40:49;;;;;;;1.75;0.52;;;18.20;53.90;;;;;;4944100;28;20034;-78
2022/05/04 04:43:15;;;;;;;1.88;0.70;;;18.40;53.50;;;;;;4944793;28;20035;-79
2022/05/04 04:45:44;;;;;;;0.95;0.73;;;18.30;53.30;;;;;;4943950;28;20921;-78
2022/05/04 04:48:11;;;;;;;1.45;0.90;;;18.20;53.00;;;;;;4944369;28;20034;-88
2022/05/04 04:50:37;;;;;;;1.80;0.70;;;18.20;53.00;;;;;;4945150;28;20085;-83
2022/05/04 04:53:04;;;;;;;0.70;0.70;;;18.20;52.80;;;;;;4946054;28;20505;-83
2022/05/04 04:55:29;;;;;;;1.50;0.55;;;18.20;52.60;;;;;;4961060;28;20414;-83
2022/05/04 04:57:55;;;;;;;1.85;0.57;;;18.20;52.30;;;;;;4944345;28;20043;-83
2022/05/04 05:00:22;;;;;;;0.65;0.50;;;18.20;52.10;;;;;;4943776;28;20117;-84
2022/05/04 05:02:48;;;;;;;1.13;0.60;;;18.20;51.80;;;;;;4960593;28;20027;-88
2022/05/04 05:05:14;;;;;;;2.22;0.70;;;18.30;52.00;;;;;;4962349;28;20035;-87
2022/05/04 05:07:40;;;;;;;2.45;0.80;;;18.30;52.00;;;;;;4960902;28;20039;-88
2022/05/04 05:10:06;;;;;;;1.13;0.52;;;18.40;52.00;;;;;;4960077;28;20050;-89
2022/05/04 05:12:32;;;;;;;2.80;0.70;;;18.40;51.60;;;;;;4944397;28;20402;-88
2022/05/04 05:17:43;;;;;;;2.72;1.50;;;18.50;51.90;;;;;;4945588;28;20129;-84
2022/05/04 05:20:10;;;;;;;3.50;1.10;;;18.50;51.90;;;;;;4960238;28;20185;-87
2022/05/04 05:22:37;;;;;;;5.15;1.60;;;18.50;52.10;;;;;;4908197;28;20048;-89
2022/05/04 05:25:03;;;;;;;3.88;1.60;;;18.50;52.50;;;;;;4927652;28;20035;-82
2022/05/04 05:27:31;;;;;;;3.60;1.08;;;18.50;52.50;;;;;;4959551;28;20093;-82
2022/05/04 05:29:57;;;;;;;2.70;1.00;;;18.60;52.20;;;;;;4945382;28;20051;-83
2022/05/04 05:32:23;;;;;;;1.65;0.90;;;18.60;52.00;;;;;;4945462;28;20035;-84
2022/05/04 05:34:49;;;;;;;2.65;0.82;;;18.60;51.70;;;;;;4959971;28;20097;-84
2022/05/04 05:37:15;;;;;;;1.95;1.02;;;18.70;51.10;;;;;;4944508;29;20039;-85
2022/05/04 05:39:41;;;;;;;2.78;1.00;;;18.70;51.10;;;;;;4960902;28;20039;-84
2022/05/04 05:42:08;;;;;;;5.40;1.25;;;18.70;51.50;;;;;;4910932;28;20126;-84
2022/05/04 05:44:34;;;;;;;3.92;1.30;;;18.70;51.50;;;;;;4948000;28;20399;-83
2022/05/04 05:47:01;;;;;;;6.68;1.25;;;18.70;51.40;;;;;;4931074;28;20041;-84
2022/05/04 05:49:28;;;;;;;1.80;0.90;;;18.70;51.40;;;;;;4963254;28;20125;-84
2022/05/04 05:51:54;;;;;;;5.10;1.27;;;18.70;51.70;;;;;;4930340;28;20538;-84
2022/05/04 05:54:20;;;;;;;3.33;1.13;;;18.50;52.50;;;;;;4931637;28;20130;-85
2022/05/04 05:56:46;;;;;;;4.20;1.17;;;18.50;53.20;;;;;;4931151;28;20129;-85
2022/05/04 05:59:12;;;;;;;2.42;1.30;;;18.50;53.30;;;;;;4962870;28;20355;-83
2022/05/04 06:01:39;;;;;;;3.72;0.90;;;18.50;53.40;;;;;;4932369;28;20089;-84
2022/05/04 06:04:05;;;;;;;3.25;1.40;;;18.50;53.10;;;;;;4957906;28;20043;-83
2022/05/04 06:06:31;;;;;;;3.55;1.00;;;18.50;52.40;;;;;;4962601;28;20039;-83
2022/05/04 06:08:57;;;;;;;1.23;1.13;;;18.50;52.10;;;;;;4945172;28;20035;-83
2022/05/04 06:11:23;;;;;;;2.35;1.38;;;18.50;52.10;;;;;;4961542;28;21577;-83
2022/05/04 06:13:53;;;;;;;5.90;1.75;;;18.60;51.90;;;;;;4962548;28;20114;-84
2022/05/04 06:16:19;;;;;;;3.88;1.10;;;18.50;53.90;;;;;;4962691;28;20079;-83
2022/05/04 06:18:45;;;;;;;1.90;1.20;;;18.50;51.30;;;;;;4962574;28;20114;-83
2022/05/04 06:21:11;;;;;;;2.97;0.90;;;18.40;49.60;;;;;;4947840;28;20042;-83
2022/05/04 06:23:37;;;;;;;3.22;1.05;;;18.40;48.30;;;;;;4948178;28;20035;-85
2022/05/04 06:26:03;;;;;;;1.05;0.80;;;18.30;47.70;;;;;;4947638;28;20031;-84
2022/05/04 06:28:29;;;;;;;2.28;0.82;;;18.10;47.60;;;;;;4980301;28;20169;-85
2022/05/04 06:36:24;;;;;;;1.67;0.70;;;18.10;47.80;;;;;;4965162;28;20465;-84
2022/05/04 06:38:50;;;;;;;2.88;0.70;;;18.10;47.40;;;;;;4949536;28;20038;-85
2022/05/04 06:41:16;;;;;;;0.90;0.70;;;18.00;48.10;;;;;;4948685;28;20031;-84
2022/05/04 06:43:43;;;;;;;3.88;0.85;;;18.00;48.10;;;;;;4947887;29;20410;-84
2022/05/04 06:46:09;;;;;;;2.45;1.00;;;18.00;48.10;;;;;;4930383;28;20109;-84
2022/05/04 06:48:35;;;;;;;2.28;1.00;;;17.80;48.20;;;;;;4962319;28;20498;-84
2022/05/04 06:51:01;;;;;;;2.15;0.88;;;17.80;48.10;;;;;;4926184;28;20039;-82
2022/05/04 06:53:27;;;;;;;3.03;0.70;;;17.80;48.60;;;;;;4947235;28;20032;-83
2022/05/04 06:55:53;;;;;;;1.33;0.93;;;17.60;48.80;;;;;;4955220;28;20438;-84
2022/05/04 06:58:19;;;;;;;2.78;1.05;;;17.50;49.60;;;;;;4964018;28;20157;-83
2022/05/04 07:00:45;;;;;;;1.52;0.80;;;17.40;49.80;;;;;;4963265;28;20502;-84
2022/05/04 07:03:11;;;;;;;3.38;0.80;;;17.30;49.80;;;;;;4952503;28;20035;-85
2022/05/04 07:05:37;;;;;;;1.00;0.57;;;17.40;49.60;;;;;;4961870;28;20043;-84
2022/05/04 07:08:03;;;;;;;2.20;0.60;;;17.30;49.60;;;;;;4947052;28;20027;-84
2022/05/04 07:10:29;;;;;;;3.10;0.63;;;17.20;49.80;;;;;;4947206;28;20581;-84
2022/05/04 07:12:55;;;;;;;1.98;0.60;;;17.30;49.70;;;;;;4946660;28;20050;-83
2022/05/04 07:15:21;;;;;;;2.28;0.63;;;17.20;49.40;;;;;;4945892;28;21462;-82
2022/05/04 07:17:47;;;;;;;1.60;0.55;;;17.10;49.30;;;;;;4925209;28;20046;-84
2022/05/04 07:20:13;;;;;;;0.98;0.77;;;17.10;49.30;;;;;;4951247;28;20184;-84
2022/05/04 07:22:39;;;;;;;0.80;0.57;;;17.20;49.50;;;;;;4930095;28;20031;-84
2022/05/04 07:25:06;;;;;;;3.88;1.02;;;17.30;49.40;;;;;;4961327;28;20051;-82
2022/05/04 07:27:31;;;;;;;2.35;0.60;;;17.20;47.80;;;;;;4947130;28;20039;-84
2022/05/04 07:29:57;;;;;;;2.25;0.90;;;17.20;47.70;;;;;;4946907;28;20035;-84
2022/05/04 07:32:23;;;;;;;1.92;0.65;;;17.20;47.90;;;;;;4961088;28;20046;-83
2022/05/04 07:34:49;;;;;;;1.48;0.50;;;17.20;48.00;;;;;;4946627;28;20083;-84
2022/05/04 07:37:15;;;;;;;1.92;0.80;;;17.20;48.70;;;;;;4948364;28;20027;-84
2022/05/04 07:42:26;;;;;;;3.60;1.05;;;17.30;48.30;;;;;;4946525;28;20133;-85
2022/05/04 07:45:08;;;;;;;4.07;0.80;;;17.30;48.40;;;;;;4925476;28;20551;-85
2022/05/04 07:47:35;;;;;;;3.05;0.63;;;17.40;47.90;;;;;;4961092;28;20039;-84
2022/05/04 07:50:03;;;;;;;1.00;0.70;;;17.50;47.80;;;;;;4946555;28;20038;-84
2022/05/04 07:52:29;;;;;;;1.40;0.43;;;17.50;47.40;;;;;;4946728;29;20032;-83
2022/05/04 07:54:55;;;;;;;2.75;0.80;;;17.50;47.60;;;;;;4945482;28;20038;-84
2022/05/04 07:57:21;;;;;;;2.47;0.65;;;17.50;46.70;;;;;;4929362;28;20083;-82
2022/05/04 08:05:17;;;;;;;0.95;0.82;;;17.40;46.20;;;;;;4962145;28;20074;-85
2022/05/04 08:07:43;;;;;;;1.30;0.50;;;17.30;46.60;;;;;;4973149;28;20039;-85
2022/05/04 08:10:09;;;;;;;1.70;0.70;;;17.20;46.00;;;;;;4954444;28;20039;-85
2022/05/04 08:12:35;;;;;;;2.45;0.80;;;17.20;45.90;;;;;;4933859;28;20093;-85
2022/05/04 08:15:01;;;;;;;1.15;0.57;;;17.20;45.70;;;;;;4933822;28;20050;-85
2022/05/04 08:17:27;;;;;;;1.35;0.70;;;17.10;45.70;;;;;;4966351;28;20510;-84
2022/05/04 08:19:53;;;;;;;1.85;0.70;;;17.00;45.40;;;;;;4931177;28;20114;-83
2022/05/04 08:22:19;;;;;;;1.40;0.65;;;17.00;45.00;;;;;;4951607;28;20127;-84
2022/05/04 08:24:46;;;;;;;0.90;0.70;;;16.90;45.70;;;;;;4965905;28;20126;-84
2022/05/04 08:27:12;;;;;;;1.65;0.60;;;16.90;45.10;;;;;;4950856;28;20490;-85
2022/05/04 08:29:38;;;;;;;1.85;0.90;;;16.90;45.20;;;;;;4932867;28;20122;-84
2022/05/04 08:32:04;;;;;;;4.50;0.65;;;16.90;45.70;;;;;;4953466;28;20069;-84
2022/05/04 08:34:30;;;;;;;1.50;0.75;;;16.90;45.30;;;;;;4950193;28;20042;-85
2022/05/04 08:36:56;;;;;;;1.25;0.80;;;16.90;45.20;;;;;;4933758;28;20078;-85
2022/05/04 08:39:22;;;;;;;0.70;0.70;;;16.80;45.40;;;;;;4968757;28;20077;-82
2022/05/04 08:41:48;;;;;;;3.03;1.15;;;16.80;45.10;;;;;;4933362;28;20046;-85
2022/05/04 08:44:14;;;;;;;4.22;1.88;;;16.70;45.10;;;;;;4951032;28;20093;-84
2022/05/04 08:46:44;;;;;;;2.92;1.63;;;16.70;45.10;;;;;;4966305;28;20085;-84
2022/05/04 08:49:12;;;;;;;2.83;1.83;;;16.70;45.10;;;;;;4950401;28;20498;-85
2022/05/04 08:51:40;;;;;;;5.07;1.73;;;16.60;45.20;;;;;;4951148;28;20481;-84
2022/05/04 08:54:07;;;;;;;1.50;1.20;;;16.60;45.60;;;;;;4950973;28;20059;-84
2022/05/04 08:56:35;;;;;;;2.25;1.40;;;16.60;45.80;;;;;;4947013;28;20414;-85
2022/05/04 08:59:02;;;;;;;1.77;1.08;;;16.60;46.60;;;;;;4945903;28;20035;-84
2022/05/04 09:01:28;;;;;;;1.75;1.10;;;16.50;45.60;;;;;;4960697;28;20458;-84
2022/05/04 09:03:56;;;;;;;3.35;1.23;;;16.60;45.70;;;;;;4925496;28;20035;-84
2022/05/04 09:06:33;;;;;;;1.27;0.93;;;16.60;45.50;;;;;;4928173;28;20047;-84
2022/05/04 09:09:08;;;;;;;2.13;0.70;;;16.60;45.10;;;;;;4941754;28;20032;-83
2022/05/04 09:11:39;;;;;;;4.10;0.93;;;16.60;45.00;;;;;;4928371;28;20047;-84
2022/05/04 09:14:13;;;;;;;1.52;1.05;;;16.60;45.10;;;;;;4914990;28;20694;-85
2022/05/04 09:16:39;;;;;;;2.45;1.13;;;16.50;45.70;;;;;;4953190;29;20123;-83
2022/05/04 09:19:09;;;;;;;1.08;0.75;;;16.50;46.40;;;;;;4952352;28;20039;-83
2022/05/04 09:21:35;;;;;;;1.88;1.23;;;16.50;47.10;;;;;;4953238;28;20039;-83
2022/05/04 09:24:02;;;;;;;2.85;1.20;;;16.40;48.00;;;;;;4967289;28;20032;-84
2022/05/04 09:26:28;;;;;;;2.13;1.60;;;16.40;47.90;;;;;;5003295;28;20084;-83
2022/05/04 09:28:59;;;;;;;1.95;0.93;;;16.40;47.70;;;;;;4953105;28;20460;-83
2022/05/04 09:31:28;;;;;;;1.50;0.80;;;16.20;47.40;;;;;;4951598;28;20172;-82
2022/05/04 09:34:02;;;;;;;1.98;1.52;;;16.10;47.00;;;;;;4949325;28;20574;-82
2022/05/04 09:44:54;;;;;;;3.83;1.15;;;16.00;47.20;;;;;;4997717;28;20043;-82
2022/05/04 09:45:05;;;;;;;21.00;13.65;;;15.80;46.00;;;;;;4947001;28;20035;-82
2022/05/04 09:47:36;;;;;;;12.00;8.70;;;15.80;46.30;;;;;;4948835;28;20042;-82
2022/05/04 09:50:05;;;;;;;14.70;8.90;;;15.80;46.70;;;;;;4924219;28;20422;-81
2022/05/04 09:52:41;;;;;;;9.77;6.20;;;15.80;46.40;;;;;;4931586;28;20055;-82
2022/05/04 09:55:24;;;;;;;8.25;4.53;;;15.70;46.40;;;;;;4963289;28;20035;-82
2022/05/04 09:57:52;;;;;;;4.35;2.42;;;15.70;46.60;;;;;;4962816;28;20035;-82
2022/05/04 10:00:21;;;;;;;2.45;2.20;;;15.70;46.40;;;;;;4962655;28;20051;-81
2022/05/04 10:02:51;;;;;;;2.35;1.80;;;15.80;46.60;;;;;;4953082;28;20047;-82
2022/05/04 10:05:17;;;;;;;2.42;1.45;;;15.80;46.00;;;;;;4955602;28;20445;-82
2022/05/04 10:07:44;;;;;;;1.92;1.58;;;15.80;46.20;;;;;;4949301;29;20031;-82
2022/05/04 10:10:14;;;;;;;2.85;1.35;;;15.90;46.50;;;;;;4947258;29;20043;-85
2022/05/04 10:12:44;;;;;;;2.08;1.20;;;15.90;46.60;;;;;;4947170;28;20039;-77
2022/05/04 10:15:12;;;;;;;2.95;1.48;;;15.80;48.80;;;;;;5012795;28;20051;-78
2022/05/04 10:17:53;;;;;;;2.33;1.50;;;15.80;55.20;;;;;;4948303;28;20944;-81
2022/05/04 10:20:21;;;;;;;2.10;1.30;;;15.80;57.60;;;;;;4947751;28;20041;-83
2022/05/04 10:23:09;;;;;;;2.90;1.50;;;16.00;56.20;;;;;;4968099;28;20046;-88
2022/05/04 10:25:35;;;;;;;2.13;1.52;;;16.20;53.80;;;;;;4965963;28;20547;-85
2022/05/04 10:28:10;;;;;;;2.42;1.40;;;16.40;52.00;;;;;;4967468;28;20401;-83
2022/05/04 10:30:48;;;;;;;4.13;1.83;;;16.50;51.40;;;;;;4967334;28;20521;-85
2022/05/04 10:33:17;;;;;;;3.35;1.50;;;16.60;51.80;;;;;;4918400;28;20050;-85
2022/05/04 10:35:45;;;;;;;4.57;1.52;;;16.50;49.00;;;;;;4950897;28;20069;-85
2022/05/04 10:38:19;;;;;;;5.03;1.30;;;16.50;48.00;;;;;;4961205;28;20085;-85
2022/05/04 10:40:59;;;;;;;3.33;1.20;;;16.50;47.50;;;;;;4926673;28;20118;-85
2022/05/04 10:43:38;;;;;;;2.03;0.95;;;16.50;48.30;;;;;;4931328;28;20039;-87
2022/05/04 10:46:23;;;;;;;3.50;1.02;;;16.50;47.90;;;;;;4978447;28;20039;-86
2022/05/04 10:49:04;;;;;;;3.75;1.33;;;16.40;47.90;;;;;;4946626;28;20063;-86
2022/05/04 10:51:34;;;;;;;1.67;1.17;;;16.50;48.20;;;;;;4941954;28;20039;-87
2022/05/04 10:54:04;;;;;;;3.65;0.93;;;16.40;47.90;;;;;;4929597;28;20063;-86
2022/05/04 10:56:44;;;;;;;1.42;0.75;;;16.50;47.70;;;;;;4961752;28;20429;-86
2022/05/04 10:59:11;;;;;;;3.80;0.90;;;16.50;47.80;;;;;;4928455;28;20495;-86
2022/05/04 11:01:39;;;;;;;3.03;1.00;;;16.50;48.00;;;;;;4913713;28;20132;-86
2022/05/04 11:04:05;;;;;;;4.18;1.20;;;16.50;48.20;;;;;;4925231;28;20387;-86
2022/05/04 11:06:50;;;;;;;2.90;1.20;;;16.50;48.70;;;;;;4928555;28;20039;-85
2022/05/04 11:09:25;;;;;;;1.42;0.60;;;16.50;48.50;;;;;;4913374;28;20066;-87
2022/05/04 11:11:55;;;;;;;4.38;0.90;;;16.50;48.10;;;;;;4971996;28;20096;-85
2022/05/04 11:14:25;;;;;;;2.30;1.35;;;16.60;47.50;;;;;;4960791;28;20027;-86
2022/05/04 11:16:56;;;;;;;2.20;1.17;;;16.60;47.00;;;;;;4944910;28;20031;-87
2022/05/04 11:19:27;;;;;;;3.50;1.60;;;16.60;46.40;;;;;;5012521;28;20035;-86
2022/05/04 11:21:55;;;;;;;4.07;1.80;;;16.60;46.10;;;;;;4947285;28;20038;-87
2022/05/04 11:24:21;;;;;;;4.90;1.30;;;16.60;45.70;;;;;;4936485;28;20043;-88
2022/05/04 11:26:51;;;;;;;3.67;1.10;;;16.50;46.00;;;;;;4994915;28;20113;-88
2022/05/04 11:29:20;;;;;;;4.35;1.58;;;16.50;44.90;;;;;;4944976;28;20035;-86
2022/05/04 11:32:17;;;;;;;1.42;0.82;;;16.50;44.40;;;;;;4946792;28;20651;-85
2022/05/04 11:35:35;;;;;;;2.38;0.90;;;16.40;43.60;;;;;;4960670;28;20066;-86
2022/05/04 11:38:01;;;;;;;1.92;1.25;;;16.30;43.30;;;;;;4923744;28;20506;-86
2022/05/04 11:40:27;;;;;;;2.25;0.90;;;16.30;43.40;;;;;;4947746;28;20031;-88
2022/05/04 11:42:53;;;;;;;3.30;1.13;;;16.30;43.90;;;;;;4962303;28;20034;-88
2022/05/04 11:45:20;;;;;;;1.63;0.98;;;16.30;44.30;;;;;;4959821;28;20576;-87
2022/05/04 11:47:46;;;;;;;3.03;0.90;;;16.30;44.30;;;;;;4929453;28;20126;-87
2022/05/04 11:50:13;;;;;;;1.88;1.10;;;16.40;44.40;;;;;;4930045;28;20126;-87
2022/05/04 11:52:40;;;;;;;3.05;0.90;;;16.40;44.00;;;;;;4976238;28;20714;-86
2022/05/04 11:55:07;;;;;;;2.08;1.02;;;16.30;44.50;;;;;;4960499;28;20533;-87
2022/05/04 11:57:41;;;;;;;2.45;1.10;;;16.40;44.30;;;;;;4928724;28;20044;-84
2022/05/04 12:00:25;;;;;;;2.38;1.08;;;16.30;45.50;;;;;;4960386;28;20047;-83
2022/05/04 12:02:51;;;;;;;2.15;0.80;;;16.20;44.40;;;;;;4945275;28;20161;-83
2022/05/04 12:05:18;;;;;;;1.48;0.70;;;16.20;44.70;;;;;;4937935;28;20064;-85
2022/05/04 12:07:44;;;;;;;3.13;1.00;;;16.10;44.20;;;;;;4962655;28;20454;-83
2022/05/04 12:10:11;;;;;;;1.83;0.93;;;16.00;44.00;;;;;;4959667;28;20038;-87
2022/05/04 12:12:37;;;;;;;0.90;0.80;;;16.00;44.40;;;;;;4963008;28;20035;-86
2022/05/04 12:15:05;;;;;;;3.17;0.93;;;16.00;43.80;;;;;;4960777;28;20104;-86
2022/05/04 12:17:35;;;;;;;2.05;0.70;;;15.90;44.30;;;;;;4971067;28;20047;-85
2022/05/04 12:20:03;;;;;;;3.10;0.60;;;16.00;44.50;;;;;;4943749;28;20046;-86
2022/05/04 12:22:29;;;;;;;1.63;0.52;;;15.90;43.60;;;;;;4945040;28;20039;-85
2022/05/04 12:24:56;;;;;;;1.35;0.82;;;15.90;43.10;;;;;;5011146;28;20054;-84
2022/05/04 12:27:22;;;;;;;3.83;0.60;;;16.00;43.00;;;;;;4944340;28;20035;-84
2022/05/04 12:35:21;;;;;;;2.22;0.98;;;16.00;44.30;;;;;;4930792;28;20422;-86
2022/05/04 12:37:54;;;;;;;2.08;1.00;;;16.00;44.20;;;;;;4946500;28;20165;-90
2022/05/04 12:40:20;;;;;;;1.92;1.20;;;16.00;44.50;;;;;;4968403;28;20031;-83
2022/05/04 12:42:46;;;;;;;4.00;1.30;;;16.00;45.10;;;;;;4930659;28;20529;-85
2022/05/04 12:45:17;;;;;;;3.90;1.85;;;16.00;45.20;;;;;;4947742;28;20039;-91
2022/05/04 12:47:44;;;;;;;2.90;1.38;;;16.00;45.50;;;;;;4960280;28;20028;-79
2022/05/04 12:50:10;;;;;;;4.05;1.13;;;16.00;45.80;;;;;;4960088;28;20042;-87
2022/05/04 12:52:37;;;;;;;3.65;1.05;;;16.00;48.50;;;;;;4939372;28;20036;-89
2022/05/04 12:55:05;;;;;;;3.20;0.85;;;16.00;46.70;;;;;;4967577;28;20035;-88
2022/05/04 12:57:31;;;;;;;1.70;0.73;;;16.00;44.90;;;;;;4932137;28;20058;-87
2022/05/04 12:59:57;;;;;;;1.77;0.80;;;15.90;43.80;;;;;;4963917;28;20047;-88
2022/05/04 13:02:23;;;;;;;2.45;0.80;;;15.90;43.60;;;;;;4963668;28;20047;-86
2022/05/04 13:04:49;;;;;;;1.42;0.70;;;15.80;43.50;;;;;;4951497;28;20043;-87
2022/05/04 13:07:15;;;;;;;2.42;0.90;;;15.80;44.10;;;;;;4949074;29;20070;-88
2022/05/04 13:09:43;;;;;;;1.20;0.75;;;15.80;44.30;;;;;;4946482;28;20201;-88
2022/05/04 13:12:14;;;;;;;1.52;0.70;;;15.80;44.60;;;;;;4948824;28;20540;-87
2022/05/04 13:14:40;;;;;;;2.65;0.98;;;15.80;45.00;;;;;;4974433;28;20051;-89
2022/05/04 13:17:07;;;;;;;2.10;0.80;;;15.80;45.60;;;;;;4948150;28;20113;-88
2022/05/04 13:19:34;;;;;;;2.55;0.98;;;15.80;44.90;;;;;;4964089;28;20042;-88
2022/05/04 13:22:01;;;;;;;5.13;2.03;;;15.80;45.20;;;;;;4925550;28;20047;-90
2022/05/04 13:24:27;;;;;;;1.80;1.27;;;15.80;45.40;;;;;;4931216;28;20044;-87